sensor_id;sensor_type;location;lat;lon;timestamp;pressure;altitude;pressure_sealevel;temperature;humidity
70445;BME280;57902;49.638;11.070;2024-01-07T00:02:08;97644.28;;;2.76;100.00
70445;BME280;57902;49.638;11.070;2024-01-07T00:04:35;97642.56;;;2.78;100.00
70445;BME280;57902;49.638;11.070;2024-01-07T00:07:02;97645.13;;;2.75;100.00
70445;BME280;57902;49.638;11.070;2024-01-07T00:09:28;97640.88;;;2.76;100.00
70445;BME280;57902;49.638;11.070;2024-01-07T00:11:55;97633.25;;;2.79;100.00
70445;BME280;57902;49.638;11.070;2024-01-07T00:14:21;97634.09;;;2.78;100.00
70445;BME280;57902;49.638;11.070;2024-01-07T00:16:48;97634.91;;;2.80;100.00
70445;BME280;57902;49.638;11.070;2024-01-07T00:19:14;97634.00;;;2.87;100.00
70445;BME280;57902;49.638;11.070;2024-01-07T00:21:41;97641.56;;;2.93;100.00
70445;BME280;57902;49.638;11.070;2024-01-07T00:24:08;97637.41;;;2.83;100.00
70445;BME280;57902;49.638;11.070;2024-01-07T00:26:34;97638.28;;;2.84;100.00
70445;BME280;57902;49.638;11.070;2024-01-07T00:29:01;97638.25;;;2.87;100.00
70445;BME280;57902;49.638;11.070;2024-01-07T00:31:28;97638.31;;;2.82;100.00
70445;BME280;57902;49.638;11.070;2024-01-07T00:33:55;97644.16;;;2.90;100.00
70445;BME280;57902;49.638;11.070;2024-01-07T00:36:21;97644.16;;;2.89;100.00
70445;BME280;57902;49.638;11.070;2024-01-07T00:38:48;97644.13;;;2.93;100.00
70445;BME280;57902;49.638;11.070;2024-01-07T00:41:14;97643.31;;;2.90;100.00
70445;BME280;57902;49.638;11.070;2024-01-07T00:43:41;97640.72;;;2.94;100.00
70445;BME280;57902;49.638;11.070;2024-01-07T00:46:07;97646.72;;;2.87;100.00
70445;BME280;57902;49.638;11.070;2024-01-07T00:48:34;97643.31;;;2.90;100.00
70445;BME280;57902;49.638;11.070;2024-01-07T00:51:01;97641.59;;;2.90;100.00
70445;BME280;57902;49.638;11.070;2024-01-07T00:53:27;97645.88;;;2.87;100.00
70445;BME280;57902;49.638;11.070;2024-01-07T00:55:54;97646.69;;;2.90;100.00
70445;BME280;57902;49.638;11.070;2024-01-07T00:58:20;97652.63;;;2.92;100.00
70445;BME280;57902;49.638;11.070;2024-01-07T01:00:47;97654.31;;;2.92;100.00
70445;BME280;57902;49.638;11.070;2024-01-07T01:03:14;97644.91;;;3.02;100.00
70445;BME280;57902;49.638;11.070;2024-01-07T01:05:40;97651.81;;;2.87;100.00
70445;BME280;57902;49.638;11.070;2024-01-07T01:08:07;97656.03;;;2.91;100.00
70445;BME280;57902;49.638;11.070;2024-01-07T01:10:33;97656.91;;;2.87;100.00
70445;BME280;57902;49.638;11.070;2024-01-07T01:13:00;97657.75;;;2.89;100.00
70445;BME280;57902;49.638;11.070;2024-01-07T01:15:26;97655.22;;;2.89;100.00
70445;BME280;57902;49.638;11.070;2024-01-07T01:17:53;97658.66;;;2.82;100.00
70445;BME280;57902;49.638;11.070;2024-01-07T01:20:19;97655.25;;;2.82;100.00
70445;BME280;57902;49.638;11.070;2024-01-07T01:22:46;97660.31;;;2.86;100.00
70445;BME280;57902;49.638;11.070;2024-01-07T01:25:13;97652.75;;;2.75;100.00
70445;BME280;57902;49.638;11.070;2024-01-07T01:27:40;97657.84;;;2.77;100.00
70445;BME280;57902;49.638;11.070;2024-01-07T01:30:07;97659.56;;;2.76;100.00
70445;BME280;57902;49.638;11.070;2024-01-07T01:32:34;97660.38;;;2.77;100.00
70445;BME280;57902;49.638;11.070;2024-01-07T01:35:01;97662.88;;;2.82;100.00
70445;BME280;57902;49.638;11.070;2024-01-07T01:37:27;97663.78;;;2.77;100.00
70445;BME280;57902;49.638;11.070;2024-01-07T01:39:54;97661.25;;;2.74;100.00
70445;BME280;57902;49.638;11.070;2024-01-07T01:42:21;97665.44;;;2.80;100.00
70445;BME280;57902;49.638;11.070;2024-01-07T01:44:47;97669.75;;;2.73;100.00
70445;BME280;57902;49.638;11.070;2024-01-07T01:47:14;97671.47;;;2.71;100.00
70445;BME280;57902;49.638;11.070;2024-01-07T01:49:40;97669.81;;;2.66;100.00
70445;BME280;57902;49.638;11.070;2024-01-07T01:52:08;97669.78;;;2.72;100.00
70445;BME280;57902;49.638;11.070;2024-01-07T01:54:35;97665.56;;;2.69;100.00
70445;BME280;57902;49.638;11.070;2024-01-07T01:57:02;97675.75;;;2.68;100.00
70445;BME280;57902;49.638;11.070;2024-01-07T01:59:29;97675.78;;;2.58;100.00
70445;BME280;57902;49.638;11.070;2024-01-07T02:01:55;97682.59;;;2.56;100.00
70445;BME280;57902;49.638;11.070;2024-01-07T02:04:22;97680.88;;;2.58;100.00
70445;BME280;57902;49.638;11.070;2024-01-07T02:06:49;97680.91;;;2.57;100.00
70445;BME280;57902;49.638;11.070;2024-01-07T02:09:16;97680.06;;;2.56;100.00
70445;BME280;57902;49.638;11.070;2024-01-07T02:11:42;97683.44;;;2.61;100.00
70445;BME280;57902;49.638;11.070;2024-01-07T02:14:09;97686.88;;;2.56;100.00
70445;BME280;57902;49.638;11.070;2024-01-07T02:16:35;97684.31;;;2.56;100.00
70445;BME280;57902;49.638;11.070;2024-01-07T02:19:02;97691.94;;;2.57;100.00
70445;BME280;57902;49.638;11.070;2024-01-07T02:21:28;97685.19;;;2.53;100.00
70445;BME280;57902;49.638;11.070;2024-01-07T02:23:55;97688.56;;;2.52;100.00
70445;BME280;57902;49.638;11.070;2024-01-07T02:26:22;97685.13;;;2.59;100.00
70445;BME280;57902;49.638;11.070;2024-01-07T02:28:48;97697.91;;;2.50;100.00
70445;BME280;57902;49.638;11.070;2024-01-07T02:31:15;97697.94;;;2.47;100.00
70445;BME280;57902;49.638;11.070;2024-01-07T02:33:42;97697.13;;;2.42;100.00
70445;BME280;57902;49.638;11.070;2024-01-07T02:36:08;97697.09;;;2.47;100.00
70445;BME280;57902;49.638;11.070;2024-01-07T02:38:35;97700.53;;;2.36;100.00
70445;BME280;57902;49.638;11.070;2024-01-07T02:41:02;97689.53;;;2.34;100.00
70445;BME280;57902;49.638;11.070;2024-01-07T02:43:28;97698.84;;;2.37;100.00
70445;BME280;57902;49.638;11.070;2024-01-07T02:45:55;97706.44;;;2.44;100.00
70445;BME280;57902;49.638;11.070;2024-01-07T02:48:22;97708.94;;;2.49;100.00
70445;BME280;57902;49.638;11.070;2024-01-07T02:50:49;97713.25;;;2.38;100.00
70445;BME280;57902;49.638;11.070;2024-01-07T02:53:15;97708.16;;;2.38;100.00
70445;BME280;57902;49.638;11.070;2024-01-07T02:55:42;97712.38;;;2.42;100.00
70445;BME280;57902;49.638;11.070;2024-01-07T02:58:08;97717.44;;;2.43;100.00
70445;BME280;57902;49.638;11.070;2024-01-07T03:00:35;97712.44;;;2.33;100.00
70445;BME280;57902;49.638;11.070;2024-01-07T03:03:01;97708.19;;;2.35;100.00
70445;BME280;57902;49.638;11.070;2024-01-07T03:05:28;97714.13;;;2.35;100.00
70445;BME280;57902;49.638;11.070;2024-01-07T03:07:59;97711.56;;;2.38;100.00
70445;BME280;57902;49.638;11.070;2024-01-07T03:10:26;97716.66;;;2.40;100.00
70445;BME280;57902;49.638;11.070;2024-01-07T03:12:53;97717.53;;;2.33;100.00
70445;BME280;57902;49.638;11.070;2024-01-07T03:15:20;97720.09;;;2.30;100.00
70445;BME280;57902;49.638;11.070;2024-01-07T03:17:46;97718.41;;;2.25;100.00
70445;BME280;57902;49.638;11.070;2024-01-07T03:20:13;97715.03;;;2.25;100.00
70445;BME280;57902;49.638;11.070;2024-01-07T03:22:40;97717.63;;;2.20;100.00
70445;BME280;57902;49.638;11.070;2024-01-07T03:25:07;97717.59;;;2.22;100.00
70445;BME280;57902;49.638;11.070;2024-01-07T03:27:34;97718.41;;;2.25;100.00
70445;BME280;57902;49.638;11.070;2024-01-07T03:30:00;97725.22;;;2.23;100.00
70445;BME280;57902;49.638;11.070;2024-01-07T03:32:27;97723.53;;;2.22;100.00
70445;BME280;57902;49.638;11.070;2024-01-07T03:34:55;97718.44;;;2.24;100.00
70445;BME280;57902;49.638;11.070;2024-01-07T03:37:21;97725.25;;;2.20;100.00
70445;BME280;57902;49.638;11.070;2024-01-07T03:39:48;97725.25;;;2.16;100.00
70445;BME280;57902;49.638;11.070;2024-01-07T03:42:15;97728.63;;;2.18;100.00
70445;BME280;57902;49.638;11.070;2024-01-07T03:44:42;97726.97;;;2.09;100.00
70445;BME280;57902;49.638;11.070;2024-01-07T03:47:08;97730.41;;;2.02;100.00
70445;BME280;57902;49.638;11.070;2024-01-07T03:49:38;97734.59;;;2.10;100.00
70445;BME280;57902;49.638;11.070;2024-01-07T03:52:06;97739.72;;;2.06;100.00
70445;BME280;57902;49.638;11.070;2024-01-07T03:54:32;97738.84;;;2.10;100.00
70445;BME280;57902;49.638;11.070;2024-01-07T03:56:59;97747.34;;;2.04;100.00
70445;BME280;57902;49.638;11.070;2024-01-07T03:59:26;97745.63;;;2.05;100.00
70445;BME280;57902;49.638;11.070;2024-01-07T04:01:56;97753.28;;;2.02;100.00
70445;BME280;57902;49.638;11.070;2024-01-07T04:04:24;97747.34;;;2.06;100.00
70445;BME280;57902;49.638;11.070;2024-01-07T04:06:50;97762.63;;;1.93;100.00
70445;BME280;57902;49.638;11.070;2024-01-07T04:09:17;97763.50;;;1.91;100.00
70445;BME280;57902;49.638;11.070;2024-01-07T04:11:43;97766.88;;;1.93;100.00
70445;BME280;57902;49.638;11.070;2024-01-07T04:14:10;97771.13;;;1.92;100.00
70445;BME280;57902;49.638;11.070;2024-01-07T04:16:36;97767.72;;;2.00;100.00
70445;BME280;57902;49.638;11.070;2024-01-07T04:19:03;97770.22;;;1.98;100.00
70445;BME280;57902;49.638;11.070;2024-01-07T04:21:30;97772.81;;;1.90;100.00
70445;BME280;57902;49.638;11.070;2024-01-07T04:23:56;97777.06;;;1.88;100.00
70445;BME280;57902;49.638;11.070;2024-01-07T04:26:23;97783.88;;;1.74;100.00
70445;BME280;57902;49.638;11.070;2024-01-07T04:28:50;97784.69;;;1.76;100.00
70445;BME280;57902;49.638;11.070;2024-01-07T04:31:17;97788.94;;;1.80;100.00
70445;BME280;57902;49.638;11.070;2024-01-07T04:33:43;97787.25;;;1.82;100.00
70445;BME280;57902;49.638;11.070;2024-01-07T04:36:10;97801.66;;;1.77;100.00
70445;BME280;57902;49.638;11.070;2024-01-07T04:38:36;97799.09;;;1.79;100.00
70445;BME280;57902;49.638;11.070;2024-01-07T04:41:03;97798.25;;;1.81;100.00
70445;BME280;57902;49.638;11.070;2024-01-07T04:43:30;97804.16;;;1.96;100.00
70445;BME280;57902;49.638;11.070;2024-01-07T04:45:56;97805.84;;;1.87;100.00
70445;BME280;57902;49.638;11.070;2024-01-07T04:48:23;97812.66;;;1.70;100.00
70445;BME280;57902;49.638;11.070;2024-01-07T04:50:49;97820.31;;;1.67;100.00
70445;BME280;57902;49.638;11.070;2024-01-07T04:53:16;97817.75;;;1.81;100.00
70445;BME280;57902;49.638;11.070;2024-01-07T04:55:43;97827.91;;;1.79;100.00
70445;BME280;57902;49.638;11.070;2024-01-07T04:58:09;97828.78;;;1.53;100.00
70445;BME280;57902;49.638;11.070;2024-01-07T05:00:36;97829.66;;;1.43;100.00
70445;BME280;57902;49.638;11.070;2024-01-07T05:03:03;97828.81;;;1.41;100.00
70445;BME280;57902;49.638;11.070;2024-01-07T05:05:29;97833.03;;;1.51;100.00
70445;BME280;57902;49.638;11.070;2024-01-07T05:07:56;97844.88;;;1.37;100.00
70445;BME280;57902;49.638;11.070;2024-01-07T05:10:25;97841.50;;;1.19;100.00
70445;BME280;57902;49.638;11.070;2024-01-07T05:12:52;97844.88;;;1.20;100.00
70445;BME280;57902;49.638;11.070;2024-01-07T05:15:18;97848.25;;;1.19;100.00
70445;BME280;57902;49.638;11.070;2024-01-07T05:17:45;97849.94;;;1.17;100.00
70445;BME280;57902;49.638;11.070;2024-01-07T05:20:11;97844.88;;;1.25;100.00
70445;BME280;57902;49.638;11.070;2024-01-07T05:22:38;97850.81;;;1.31;100.00
70445;BME280;57902;49.638;11.070;2024-01-07T05:25:04;97855.84;;;1.19;100.00
70445;BME280;57902;49.638;11.070;2024-01-07T05:27:31;97849.94;;;1.20;100.00
70445;BME280;57902;49.638;11.070;2024-01-07T05:29:58;97856.69;;;1.09;100.00
70445;BME280;57902;49.638;11.070;2024-01-07T05:32:24;97858.41;;;1.17;100.00
70445;BME280;57902;49.638;11.070;2024-01-07T05:34:51;97855.84;;;1.11;100.00
70445;BME280;57902;49.638;11.070;2024-01-07T05:37:18;97858.41;;;1.05;100.00
70445;BME280;57902;49.638;11.070;2024-01-07T05:39:44;97866.00;;;1.17;100.00
70445;BME280;57902;49.638;11.070;2024-01-07T05:42:11;97867.72;;;1.18;100.00
70445;BME280;57902;49.638;11.070;2024-01-07T05:44:38;97878.75;;;1.27;100.00
70445;BME280;57902;49.638;11.070;2024-01-07T05:47:04;97877.88;;;1.15;100.00
70445;BME280;57902;49.638;11.070;2024-01-07T05:49:31;97874.50;;;1.10;100.00
70445;BME280;57902;49.638;11.070;2024-01-07T05:51:58;97891.41;;;1.10;100.00
70445;BME280;57902;49.638;11.070;2024-01-07T05:54:24;97887.16;;;0.99;100.00
70445;BME280;57902;49.638;11.070;2024-01-07T05:56:52;97886.31;;;1.17;100.00
70445;BME280;57902;49.638;11.070;2024-01-07T05:59:18;97882.13;;;1.12;100.00
70445;BME280;57902;49.638;11.070;2024-01-07T06:01:45;97882.06;;;1.01;100.00
70445;BME280;57902;49.638;11.070;2024-01-07T06:04:12;97886.31;;;1.03;100.00
70445;BME280;57902;49.638;11.070;2024-01-07T06:06:38;97886.25;;;0.86;100.00
70445;BME280;57902;49.638;11.070;2024-01-07T06:09:06;97889.69;;;1.01;100.00
70445;BME280;57902;49.638;11.070;2024-01-07T06:11:33;97885.44;;;0.97;100.00
70445;BME280;57902;49.638;11.070;2024-01-07T06:13:59;97889.69;;;1.01;100.00
70445;BME280;57902;49.638;11.070;2024-01-07T06:16:26;97891.38;;;0.97;100.00
70445;BME280;57902;49.638;11.070;2024-01-07T06:18:52;97893.03;;;0.89;100.00
70445;BME280;57902;49.638;11.070;2024-01-07T06:21:19;97892.22;;;1.04;100.00
70445;BME280;57902;49.638;11.070;2024-01-07T06:23:45;97904.91;;;1.01;100.00
70445;BME280;57902;49.638;11.070;2024-01-07T06:26:12;97895.59;;;0.94;100.00
70445;BME280;57902;49.638;11.070;2024-01-07T06:28:38;97903.19;;;0.86;100.00
70445;BME280;57902;49.638;11.070;2024-01-07T06:31:05;97904.06;;;0.96;100.00
70445;BME280;57902;49.638;11.070;2024-01-07T06:33:32;97904.06;;;0.94;100.00
70445;BME280;57902;49.638;11.070;2024-01-07T06:36:00;97902.34;;;0.84;100.00
70445;BME280;57902;49.638;11.070;2024-01-07T06:38:26;97909.97;;;0.95;100.00
70445;BME280;57902;49.638;11.070;2024-01-07T06:40:53;97907.44;;;0.93;100.00
70445;BME280;57902;49.638;11.070;2024-01-07T06:43:25;97907.38;;;0.76;100.00
70445;BME280;57902;49.638;11.070;2024-01-07T06:45:52;97909.09;;;0.86;100.00
70445;BME280;57902;49.638;11.070;2024-01-07T06:48:20;97914.19;;;0.88;100.00
70445;BME280;57902;49.638;11.070;2024-01-07T06:50:47;97910.78;;;0.81;100.00
70445;BME280;57902;49.638;11.070;2024-01-07T06:53:13;97920.13;;;0.95;100.00
70445;BME280;57902;49.638;11.070;2024-01-07T06:55:40;97920.94;;;0.80;100.00
70445;BME280;57902;49.638;11.070;2024-01-07T06:58:06;97920.06;;;0.76;100.00
70445;BME280;57902;49.638;11.070;2024-01-07T07:00:33;97929.34;;;0.65;100.00
70445;BME280;57902;49.638;11.070;2024-01-07T07:03:00;97931.88;;;0.62;100.00
70445;BME280;57902;49.638;11.070;2024-01-07T07:05:27;97938.69;;;0.71;100.00
70445;BME280;57902;49.638;11.070;2024-01-07T07:07:53;97942.88;;;0.70;100.00
70445;BME280;57902;49.638;11.070;2024-01-07T07:10:21;97947.03;;;0.59;100.00
70445;BME280;57902;49.638;11.070;2024-01-07T07:12:47;97942.06;;;0.76;100.00
70445;BME280;57902;49.638;11.070;2024-01-07T07:15:14;97947.94;;;0.65;100.00
70445;BME280;57902;49.638;11.070;2024-01-07T07:17:41;97947.91;;;0.59;100.00
70445;BME280;57902;49.638;11.070;2024-01-07T07:20:08;97950.38;;;0.48;100.00
70445;BME280;57902;49.638;11.070;2024-01-07T07:22:35;97955.44;;;0.42;100.00
70445;BME280;57902;49.638;11.070;2024-01-07T07:25:01;97957.25;;;0.65;100.00
70445;BME280;57902;49.638;11.070;2024-01-07T07:27:29;97954.56;;;0.39;100.00
70445;BME280;57902;49.638;11.070;2024-01-07T07:29:55;97965.56;;;0.39;100.00
70445;BME280;57902;49.638;11.070;2024-01-07T07:32:23;97967.31;;;0.56;100.00
70445;BME280;57902;49.638;11.070;2024-01-07T07:34:49;97966.38;;;0.40;100.00
70445;BME280;57902;49.638;11.070;2024-01-07T07:37:16;97970.66;;;0.45;100.00
70445;BME280;57902;49.638;11.070;2024-01-07T07:39:46;97979.16;;;0.54;100.00
70445;BME280;57902;49.638;11.070;2024-01-07T07:42:13;97979.06;;;0.37;100.00
70445;BME280;57902;49.638;11.070;2024-01-07T07:44:39;97986.66;;;0.37;100.00
70445;BME280;57902;49.638;11.070;2024-01-07T07:47:06;97990.97;;;0.48;100.00
70445;BME280;57902;49.638;11.070;2024-01-07T07:49:34;97990.22;;;0.62;100.00
70445;BME280;57902;49.638;11.070;2024-01-07T07:52:02;97990.06;;;0.39;100.00
70445;BME280;57902;49.638;11.070;2024-01-07T07:54:29;97999.41;;;0.44;100.00
70445;BME280;57902;49.638;11.070;2024-01-07T07:56:57;97995.13;;;0.36;100.00
70445;BME280;57902;49.638;11.070;2024-01-07T07:59:24;97992.56;;;0.32;100.00
70445;BME280;57902;49.638;11.070;2024-01-07T08:01:51;98008.63;;;0.34;100.00
70445;BME280;57902;49.638;11.070;2024-01-07T08:04:17;98010.25;;;0.23;100.00
70445;BME280;57902;49.638;11.070;2024-01-07T08:06:44;98012.84;;;0.31;100.00
70445;BME280;57902;49.638;11.070;2024-01-07T08:09:11;98016.25;;;0.39;100.00
70445;BME280;57902;49.638;11.070;2024-01-07T08:11:38;98022.28;;;0.52;100.00
70445;BME280;57902;49.638;11.070;2024-01-07T08:14:06;98030.78;;;0.60;100.00
70445;BME280;57902;49.638;11.070;2024-01-07T08:16:33;98025.53;;;0.32;100.00
70445;BME280;57902;49.638;11.070;2024-01-07T08:18:59;98041.59;;;0.36;100.00
70445;BME280;57902;49.638;11.070;2024-01-07T08:21:26;98030.50;;;0.20;100.00
70445;BME280;57902;49.638;11.070;2024-01-07T08:23:53;98036.41;;;0.19;100.00
70445;BME280;57902;49.638;11.070;2024-01-07T08:26:20;98042.31;;;0.16;100.00
70445;BME280;57902;49.638;11.070;2024-01-07T08:28:47;98049.69;;;-0.08;100.00
70445;BME280;57902;49.638;11.070;2024-01-07T08:31:13;98044.66;;;-0.05;100.00
70445;BME280;57902;49.638;11.070;2024-01-07T08:33:40;98046.56;;;0.21;100.00
70445;BME280;57902;49.638;11.070;2024-01-07T08:36:07;98049.81;;;0.07;100.00
70445;BME280;57902;49.638;11.070;2024-01-07T08:38:33;98057.44;;;0.07;100.00
70445;BME280;57902;49.638;11.070;2024-01-07T08:41:00;98060.78;;;0.00;100.00
70445;BME280;57902;49.638;11.070;2024-01-07T08:43:27;98056.50;;;-0.06;100.00
70445;BME280;57902;49.638;11.070;2024-01-07T08:45:53;98055.59;;;-0.08;100.00
70445;BME280;57902;49.638;11.070;2024-01-07T08:48:20;98065.50;;;-0.31;100.00
70445;BME280;57902;49.638;11.070;2024-01-07T08:50:47;98069.84;;;-0.21;100.00
70445;BME280;57902;49.638;11.070;2024-01-07T08:53:17;98062.28;;;-0.19;100.00
70445;BME280;57902;49.638;11.070;2024-01-07T08:55:44;98067.13;;;-0.39;100.00
70445;BME280;57902;49.638;11.070;2024-01-07T08:58:11;98073.00;;;-0.43;100.00
70445;BME280;57902;49.638;11.070;2024-01-07T09:00:37;98080.63;;;-0.40;100.00
70445;BME280;57902;49.638;11.070;2024-01-07T09:03:06;98090.00;;;-0.30;100.00
70445;BME280;57902;49.638;11.070;2024-01-07T09:05:33;98089.94;;;-0.39;100.00
70445;BME280;57902;49.638;11.070;2024-01-07T09:07:59;98087.19;;;-0.56;100.00
70445;BME280;57902;49.638;11.070;2024-01-07T09:10:30;98097.03;;;-0.06;100.00
70445;BME280;57902;49.638;11.070;2024-01-07T09:12:57;98097.66;;;-0.25;100.00
70445;BME280;57902;49.638;11.070;2024-01-07T09:15:23;98103.50;;;-0.31;100.00
70445;BME280;57902;49.638;11.070;2024-01-07T09:17:50;98106.09;;;-0.28;100.00
70445;BME280;57902;49.638;11.070;2024-01-07T09:20:17;98105.78;;;-0.57;100.00
70445;BME280;57902;49.638;11.070;2024-01-07T09:22:44;98105.06;;;-0.45;100.00
70445;BME280;57902;49.638;11.070;2024-01-07T09:25:10;98114.44;;;-0.38;100.00
70445;BME280;57902;49.638;11.070;2024-01-07T09:27:37;98104.19;;;-0.47;100.00
70445;BME280;57902;49.638;11.070;2024-01-07T09:30:04;98103.31;;;-0.49;100.00
70445;BME280;57902;49.638;11.070;2024-01-07T09:32:33;98111.50;;;-0.71;100.00
70445;BME280;57902;49.638;11.070;2024-01-07T09:35:04;98117.53;;;-0.59;100.00
70445;BME280;57902;49.638;11.070;2024-01-07T09:37:32;98118.47;;;-0.52;100.00
70445;BME280;57902;49.638;11.070;2024-01-07T09:39:59;98126.91;;;-0.54;100.00
70445;BME280;57902;49.638;11.070;2024-01-07T09:42:25;98129.41;;;-0.57;100.00
70445;BME280;57902;49.638;11.070;2024-01-07T09:44:52;98133.59;;;-0.59;100.00
70445;BME280;57902;49.638;11.070;2024-01-07T09:47:19;98131.88;;;-0.61;100.00
70445;BME280;57902;49.638;11.070;2024-01-07T09:49:46;98135.22;;;-0.64;100.00
70445;BME280;57902;49.638;11.070;2024-01-07T09:52:13;98142.22;;;-0.41;100.00
70445;BME280;57902;49.638;11.070;2024-01-07T09:54:40;98138.81;;;-0.46;100.00
70445;BME280;57902;49.638;11.070;2024-01-07T09:57:07;98140.28;;;-0.64;100.00
70445;BME280;57902;49.638;11.070;2024-01-07T09:59:36;98135.28;;;-0.58;100.00
70445;BME280;57902;49.638;11.070;2024-01-07T10:02:03;98136.00;;;-0.66;100.00
70445;BME280;57902;49.638;11.070;2024-01-07T10:04:30;98154.25;;;-0.26;100.00
70445;BME280;57902;49.638;11.070;2024-01-07T10:06:57;98145.78;;;-0.27;100.00
70445;BME280;57902;49.638;11.070;2024-01-07T10:09:29;98142.09;;;-0.54;100.00
70445;BME280;57902;49.638;11.070;2024-01-07T10:11:55;98143.63;;;-0.65;100.00
70445;BME280;57902;49.638;11.070;2024-01-07T10:14:22;98147.88;;;-0.64;100.00
70445;BME280;57902;49.638;11.070;2024-01-07T10:16:50;98145.34;;;-0.64;100.00
70445;BME280;57902;49.638;11.070;2024-01-07T10:19:24;98151.53;;;-0.42;100.00
70445;BME280;57902;49.638;11.070;2024-01-07T10:22:03;98148.78;;;-0.59;100.00
70445;BME280;57902;49.638;11.070;2024-01-07T10:24:41;98152.03;;;-0.69;100.00
70445;BME280;57902;49.638;11.070;2024-01-07T10:27:08;98159.53;;;-0.75;100.00
70445;BME280;57902;49.638;11.070;2024-01-07T10:29:35;98156.50;;;-0.49;100.00
70445;BME280;57902;49.638;11.070;2024-01-07T10:32:02;98152.75;;;-0.79;100.00
70445;BME280;57902;49.638;11.070;2024-01-07T10:34:32;98156.97;;;-0.77;100.00
70445;BME280;57902;49.638;11.070;2024-01-07T10:37:00;98159.34;;;-0.89;100.00
70445;BME280;57902;49.638;11.070;2024-01-07T10:39:29;98161.09;;;-0.85;100.00
70445;BME280;57902;49.638;11.070;2024-01-07T10:41:56;98157.91;;;-0.72;100.00
70445;BME280;57902;49.638;11.070;2024-01-07T10:44:28;98158.56;;;-0.86;100.00
70445;BME280;57902;49.638;11.070;2024-01-07T10:46:56;98156.84;;;-0.88;100.00
70445;BME280;57902;49.638;11.070;2024-01-07T10:49:24;98172.81;;;-0.90;100.00
70445;BME280;57902;49.638;11.070;2024-01-07T10:52:04;98177.44;;;-0.63;100.00
70445;BME280;57902;49.638;11.070;2024-01-07T10:54:32;98174.50;;;-0.91;100.00
70445;BME280;57902;49.638;11.070;2024-01-07T10:57:09;98177.34;;;-0.69;100.00
70445;BME280;57902;49.638;11.070;2024-01-07T10:59:39;98176.38;;;-0.79;100.00
70445;BME280;57902;49.638;11.070;2024-01-07T11:02:07;98172.88;;;-0.85;100.00
70445;BME280;57902;49.638;11.070;2024-01-07T11:05:00;98166.97;;;-0.88;100.00
70445;BME280;57902;49.638;11.070;2024-01-07T11:07:40;98169.56;;;-0.81;100.00
70445;BME280;57902;49.638;11.070;2024-01-07T11:10:12;98166.16;;;-0.86;100.00
70445;BME280;57902;49.638;11.070;2024-01-07T11:12:40;98175.22;;;-1.01;100.00
70445;BME280;57902;49.638;11.070;2024-01-07T11:15:07;98178.66;;;-0.96;100.00
70445;BME280;57902;49.638;11.070;2024-01-07T11:20:07;98178.84;;;-0.83;100.00
70445;BME280;57902;49.638;11.070;2024-01-07T11:22:38;98172.81;;;-0.92;100.00
70445;BME280;57902;49.638;11.070;2024-01-07T11:25:28;98180.34;;;-0.95;100.00
70445;BME280;57902;49.638;11.070;2024-01-07T11:27:59;98173.66;;;-0.90;100.00
70445;BME280;57902;49.638;11.070;2024-01-07T11:30:27;98174.63;;;-0.81;100.00
70445;BME280;57902;49.638;11.070;2024-01-07T11:33:00;98173.75;;;-0.86;100.00
70445;BME280;57902;49.638;11.070;2024-01-07T11:38:18;98166.72;;;-1.03;100.00
70445;BME280;57902;49.638;11.070;2024-01-07T11:40:46;98169.19;;;-1.08;100.00
70445;BME280;57902;49.638;11.070;2024-01-07T11:43:13;98180.06;;;-1.13;100.00
70445;BME280;57902;49.638;11.070;2024-01-07T11:45:40;98177.66;;;-1.07;100.00
70445;BME280;57902;49.638;11.070;2024-01-07T11:48:06;98180.28;;;-1.01;100.00
70445;BME280;57902;49.638;11.070;2024-01-07T11:50:35;98172.53;;;-1.10;100.00
70445;BME280;57902;49.638;11.070;2024-01-07T11:53:01;98170.88;;;-1.10;100.00
70445;BME280;57902;49.638;11.070;2024-01-07T11:55:29;98180.31;;;-0.98;100.00
70445;BME280;57902;49.638;11.070;2024-01-07T11:58:01;98186.94;;;-1.04;100.00
70445;BME280;57902;49.638;11.070;2024-01-07T12:00:31;98174.47;;;-0.94;100.00
70445;BME280;57902;49.638;11.070;2024-01-07T12:03:02;98182.03;;;-0.97;100.00
70445;BME280;57902;49.638;11.070;2024-01-07T12:05:30;98180.66;;;-0.73;100.00
70445;BME280;57902;49.638;11.070;2024-01-07T12:07:57;98181.22;;;-0.91;100.00
70445;BME280;57902;49.638;11.070;2024-01-07T12:10:23;98203.13;;;-0.95;100.00
70445;BME280;57902;49.638;11.070;2024-01-07T12:12:50;98193.00;;;-0.95;100.00
70445;BME280;57902;49.638;11.070;2024-01-07T12:15:20;98196.50;;;-0.86;100.00
70445;BME280;57902;49.638;11.070;2024-01-07T12:17:59;98197.66;;;-0.66;100.00
70445;BME280;57902;49.638;11.070;2024-01-07T12:20:28;98193.00;;;-0.95;100.00
70445;BME280;57902;49.638;11.070;2024-01-07T12:23:05;98191.97;;;-1.08;100.00
70445;BME280;57902;49.638;11.070;2024-01-07T12:25:31;98193.75;;;-1.02;100.00
70445;BME280;57902;49.638;11.070;2024-01-07T12:27:58;98188.75;;;-0.96;100.00
70445;BME280;57902;49.638;11.070;2024-01-07T12:30:25;98192.75;;;-1.10;100.00
70445;BME280;57902;49.638;11.070;2024-01-07T12:32:52;98185.38;;;-0.98;100.00
70445;BME280;57902;49.638;11.070;2024-01-07T12:35:19;98190.31;;;-1.07;100.00
70445;BME280;57902;49.638;11.070;2024-01-07T12:37:47;98201.31;;;-1.03;100.00
70445;BME280;57902;49.638;11.070;2024-01-07T12:40:14;98202.94;;;-1.09;98.26
70445;BME280;57902;49.638;11.070;2024-01-07T12:42:41;98193.53;;;-1.16;97.86
70445;BME280;57902;49.638;11.070;2024-01-07T12:45:13;98207.03;;;-1.15;97.39
70445;BME280;57902;49.638;11.070;2024-01-07T12:47:43;98211.53;;;-0.96;95.85
70445;BME280;57902;49.638;11.070;2024-01-07T12:50:10;98212.94;;;-1.13;96.16
70445;BME280;57902;49.638;11.070;2024-01-07T12:52:40;98212.19;;;-1.09;95.63
70445;BME280;57902;49.638;11.070;2024-01-07T12:55:07;98219.09;;;-0.99;94.85